createdAt,value
2023-02-17T00:02:22.510Z,84.55
2023-02-17T00:05:26.775Z,50.83
2023-02-17T00:08:29.362Z,29.35
2023-02-17T00:11:32.557Z,23.02
2023-02-17T00:14:35.219Z,22.70
2023-02-17T00:17:39.256Z,27.48
2023-02-17T00:20:41.894Z,20.33
2023-02-17T00:23:45.414Z,33.00
2023-02-17T00:26:48.557Z,31.55
2023-02-17T00:29:51.290Z,21.58
2023-02-17T00:32:54.478Z,24.58
2023-02-17T00:35:57.144Z,26.98
2023-02-17T00:39:00.401Z,23.45
2023-02-17T00:42:03.356Z,20.70
2023-02-17T00:45:06.858Z,24.17
2023-02-17T00:48:11.134Z,24.02
2023-02-17T00:51:15.556Z,18.10
2023-02-17T00:54:19.119Z,32.22
2023-02-17T00:57:21.983Z,24.42
2023-02-17T01:00:24.749Z,25.77
2023-02-17T01:03:29.680Z,22.85
2023-02-17T01:06:35.485Z,25.52
2023-02-17T01:09:38.226Z,20.90
2023-02-17T01:12:40.946Z,21.00
2023-02-17T01:15:50.372Z,19.65
2023-02-17T01:18:53.704Z,17.88
2023-02-17T01:21:57.164Z,16.85
2023-02-17T01:25:00.969Z,23.05
2023-02-17T01:28:05.075Z,38.90
2023-02-17T01:31:12.766Z,16.42
2023-02-17T01:34:16.209Z,75.95
2023-02-17T01:37:19.529Z,41.35
2023-02-17T01:40:22.980Z,17.70
2023-02-17T01:43:26.866Z,18.08
2023-02-17T01:46:33.312Z,89.88
2023-02-17T01:49:39.063Z,24.00
2023-02-17T01:52:42.573Z,23.27
2023-02-17T01:55:46.910Z,40.58
2023-02-17T01:58:57.511Z,17.48
2023-02-17T02:02:04.280Z,21.23
2023-02-17T02:05:07.202Z,13.00
2023-02-17T02:08:11.832Z,16.73
2023-02-17T02:11:15.077Z,16.60
2023-02-17T02:14:19.267Z,13.05
2023-02-17T02:17:44.538Z,15.65
2023-02-17T02:21:14.737Z,15.60
2023-02-17T02:24:23.431Z,17.30
2023-02-17T02:27:50.209Z,17.48
2023-02-17T02:31:18.149Z,19.30
2023-02-17T02:34:25.206Z,17.58
2023-02-17T02:37:41.691Z,12.90
2023-02-17T02:40:53.032Z,22.00
2023-02-17T02:43:56.158Z,21.88
2023-02-17T02:47:02.347Z,15.27
2023-02-17T02:50:05.421Z,15.60
2023-02-17T02:53:29.762Z,27.10
2023-02-17T02:56:37.138Z,15.75
2023-02-17T03:00:01.246Z,19.65
2023-02-17T03:03:21.088Z,22.42
2023-02-17T03:06:31.903Z,18.08
2023-02-17T03:09:35.287Z,18.90
2023-02-17T03:12:38.979Z,17.02
2023-02-17T03:15:42.647Z,14.88
2023-02-17T03:18:47.726Z,25.23
2023-02-17T03:21:58.428Z,18.95
2023-02-17T03:25:01.554Z,17.63
2023-02-17T03:28:06.382Z,20.90
2023-02-17T03:31:08.903Z,27.20
2023-02-17T03:34:12.062Z,33.83
2023-02-17T03:37:14.888Z,28.17
2023-02-17T03:40:17.633Z,18.30
2023-02-17T03:43:20.766Z,18.02
2023-02-17T03:46:23.406Z,18.13
2023-02-17T03:49:26.092Z,20.38
2023-02-17T03:52:28.940Z,19.98
2023-02-17T03:55:31.686Z,22.85
2023-02-17T03:58:35.140Z,22.58
2023-02-17T04:01:37.982Z,18.98
2023-02-17T04:04:40.729Z,19.20
2023-02-17T04:07:43.560Z,15.23
2023-02-17T04:10:46.508Z,24.38
2023-02-17T04:13:49.170Z,20.67
2023-02-17T04:16:52.064Z,12.73
2023-02-17T04:19:54.901Z,20.05
2023-02-17T04:22:57.623Z,20.58
2023-02-17T04:26:00.253Z,18.67
2023-02-17T04:29:05.271Z,24.13
2023-02-17T04:32:08.052Z,20.55
2023-02-17T04:35:10.653Z,19.73
2023-02-17T04:38:13.919Z,24.63
2023-02-17T04:41:16.612Z,21.77
2023-02-17T04:44:19.451Z,18.15
2023-02-17T04:47:23.085Z,21.33
2023-02-17T04:50:25.990Z,21.70
2023-02-17T04:53:28.524Z,28.98
2023-02-17T04:56:31.119Z,32.15
2023-02-17T04:59:34.124Z,28.58
2023-02-17T05:02:37.088Z,26.58
2023-02-17T05:05:39.898Z,22.85
2023-02-17T05:08:42.791Z,20.15
2023-02-17T05:11:45.466Z,18.38
2023-02-17T05:14:48.297Z,17.48
2023-02-17T05:17:50.834Z,17.52
2023-02-17T05:20:53.843Z,14.50
2023-02-17T05:23:56.422Z,17.27
2023-02-17T05:26:59.135Z,18.30
2023-02-17T05:30:01.757Z,13.15
2023-02-17T05:33:04.535Z,16.08
2023-02-17T05:36:09.330Z,17.88
2023-02-17T05:39:13.049Z,26.65
2023-02-17T05:42:15.638Z,25.27
2023-02-17T05:45:18.609Z,23.83
2023-02-17T05:48:21.828Z,20.42
2023-02-17T05:51:24.714Z,19.80
2023-02-17T05:54:28.302Z,23.48
2023-02-17T05:57:31.887Z,33.28
2023-02-17T06:00:34.738Z,38.72
2023-02-17T06:03:37.909Z,30.67
2023-02-17T06:06:40.777Z,33.75
2023-02-17T06:09:44.003Z,28.88
2023-02-17T06:12:47.849Z,31.15
2023-02-17T06:15:50.793Z,22.52
2023-02-17T06:18:53.730Z,25.08
2023-02-17T06:21:57.469Z,23.80
2023-02-17T06:25:00.125Z,21.10
2023-02-17T06:28:03.443Z,26.08
2023-02-17T06:31:06.432Z,30.55
2023-02-17T06:34:09.426Z,32.08
2023-02-17T06:37:12.677Z,37.13
2023-02-17T06:40:15.737Z,31.20
2023-02-17T06:43:18.982Z,29.58
2023-02-17T06:46:21.767Z,33.03
2023-02-17T06:49:25.202Z,29.55
2023-02-17T06:52:28.172Z,35.75
2023-02-17T06:55:31.651Z,31.52
2023-02-17T06:58:36.743Z,33.10
2023-02-17T07:01:40.078Z,35.22
2023-02-17T07:04:43.197Z,29.05
2023-02-17T07:07:46.111Z,25.95
2023-02-17T07:10:49.160Z,26.58
2023-02-17T07:13:51.901Z,28.05
2023-02-17T07:16:55.206Z,27.15
2023-02-17T07:20:02.140Z,25.77
2023-02-17T07:23:04.824Z,29.88
2023-02-17T07:26:10.761Z,25.08
2023-02-17T07:29:13.548Z,25.80
2023-02-17T07:32:16.400Z,33.10
2023-02-17T07:35:19.185Z,37.05
2023-02-17T07:38:22.577Z,33.65
2023-02-17T07:41:28.862Z,29.27
2023-02-17T07:44:31.612Z,23.65
2023-02-17T07:47:34.513Z,54.35
2023-02-17T07:50:37.195Z,40.17
2023-02-17T07:53:40.476Z,30.38
2023-02-17T07:56:43.345Z,33.33
2023-02-17T07:59:47.647Z,37.13
2023-02-17T08:02:50.682Z,34.17
2023-02-17T08:05:53.297Z,33.33
2023-02-17T08:09:15.534Z,31.15
2023-02-17T08:12:39.374Z,35.50
2023-02-17T08:15:42.183Z,25.42
2023-02-17T08:18:45.674Z,31.38
2023-02-17T08:21:48.388Z,26.02
2023-02-17T08:24:52.794Z,34.05
2023-02-17T08:27:55.457Z,41.55
2023-02-17T08:31:00.270Z,39.13
2023-02-17T08:34:06.304Z,41.75
2023-02-17T08:37:09.815Z,39.38
2023-02-17T08:40:12.518Z,30.52
2023-02-17T08:43:16.211Z,29.75
2023-02-17T08:46:20.031Z,31.38
2023-02-17T08:49:25.828Z,34.03
2023-02-17T08:52:28.571Z,38.15
2023-02-17T08:55:44.108Z,28.65
2023-02-17T08:58:51.859Z,28.73
2023-02-17T09:01:55.396Z,29.23
2023-02-17T09:04:58.442Z,29.75
2023-02-17T09:08:01.556Z,35.67
2023-02-17T09:11:04.376Z,22.70
2023-02-17T09:14:07.476Z,29.08
2023-02-17T09:17:10.899Z,25.67
2023-02-17T09:20:24.237Z,28.75
2023-02-17T09:23:27.833Z,31.15
2023-02-17T09:26:31.142Z,29.40
2023-02-17T09:29:33.763Z,28.23
2023-02-17T09:32:37.493Z,30.23
2023-02-17T09:35:41.249Z,35.17
2023-02-17T09:38:44.299Z,24.23
2023-02-17T09:41:52.361Z,26.73
2023-02-17T09:45:00.440Z,27.40
2023-02-17T09:48:07.195Z,31.52
2023-02-17T09:51:31.609Z,28.40
2023-02-17T09:54:45.303Z,34.65
2023-02-17T09:58:04.297Z,39.85
2023-02-17T10:01:12.746Z,32.75
2023-02-17T10:04:21.094Z,35.25
2023-02-17T10:07:34.389Z,34.72
2023-02-17T10:10:49.742Z,34.38
2023-02-17T10:13:55.729Z,30.50
2023-02-17T10:17:31.115Z,35.03
2023-02-17T10:20:38.062Z,33.30
2023-02-17T10:23:41.167Z,32.63
2023-02-17T10:27:04.227Z,35.28
2023-02-17T10:30:33.921Z,25.25
2023-02-17T10:33:54.934Z,31.65
2023-02-17T10:37:06.952Z,22.88
2023-02-17T10:40:15.756Z,29.65
2023-02-17T10:43:29.706Z,22.33
2023-02-17T10:46:32.918Z,31.33
2023-02-17T10:49:40.810Z,63.60
2023-02-17T10:52:43.977Z,28.67
2023-02-17T10:56:14.851Z,30.90
2023-02-17T10:59:22.563Z,36.92
2023-02-17T11:02:39.600Z,29.23
2023-02-17T11:05:42.798Z,23.53
2023-02-17T11:08:51.809Z,33.17
2023-02-17T11:11:58.162Z,31.08
2023-02-17T11:15:04.544Z,26.38
2023-02-17T11:18:16.833Z,32.80
2023-02-17T11:21:19.934Z,36.45
2023-02-17T11:24:23.278Z,29.23
2023-02-17T11:27:26.737Z,31.63
2023-02-17T11:30:31.861Z,31.50
2023-02-17T11:33:40.648Z,26.13
2023-02-17T11:36:46.704Z,28.55
2023-02-17T11:39:53.715Z,30.45
2023-02-17T11:43:01.726Z,25.08
2023-02-17T11:46:17.132Z,23.83
2023-02-17T11:49:39.210Z,27.55
2023-02-17T11:53:06.572Z,28.42
2023-02-17T11:56:19.775Z,27.17
2023-02-17T11:59:30.422Z,21.70
2023-02-17T12:02:51.937Z,21.73
2023-02-17T12:06:28.843Z,21.48
2023-02-17T12:09:50.907Z,19.70
2023-02-17T12:13:12.238Z,23.67
2023-02-17T12:16:46.277Z,24.65
2023-02-17T12:20:10.320Z,24.83
2023-02-17T12:23:37.314Z,25.10
2023-02-17T12:26:50.622Z,24.33
2023-02-17T12:30:20.429Z,35.05
2023-02-17T12:33:48.398Z,24.77
2023-02-17T12:36:52.386Z,26.38
2023-02-17T12:40:02.682Z,25.95
2023-02-17T12:43:26.136Z,27.60
2023-02-17T12:46:47.335Z,33.50
2023-02-17T12:49:55.710Z,29.77
2023-02-17T12:53:03.363Z,29.15
2023-02-17T12:56:33.788Z,29.30
2023-02-17T12:59:50.761Z,28.10
2023-02-17T13:02:59.493Z,28.20
2023-02-17T13:06:24.584Z,29.48
2023-02-17T13:09:36.273Z,29.52
2023-02-17T13:12:41.092Z,33.45
2023-02-17T13:15:47.596Z,28.10
2023-02-17T13:18:52.632Z,26.17
2023-02-17T13:21:57.361Z,27.88
2023-02-17T13:25:00.060Z,27.80
2023-02-17T13:28:04.927Z,32.92
2023-02-17T13:31:17.117Z,30.27
2023-02-17T13:34:28.666Z,25.48
2023-02-17T13:37:34.713Z,26.50
2023-02-17T13:40:40.920Z,33.85
2023-02-17T13:43:43.840Z,25.25
2023-02-17T13:46:47.548Z,32.38
2023-02-17T13:49:55.559Z,23.80
2023-02-17T13:52:59.377Z,31.88
2023-02-17T13:56:09.859Z,28.15
2023-02-17T13:59:18.795Z,36.25
2023-02-17T14:02:35.536Z,33.20
2023-02-17T14:05:43.702Z,30.95
2023-02-17T14:08:46.421Z,32.65
2023-02-17T14:11:50.638Z,33.40
2023-02-17T14:14:53.365Z,38.55
2023-02-17T14:17:57.288Z,35.70
2023-02-17T14:21:11.551Z,32.30
2023-02-17T14:24:39.053Z,35.47
2023-02-17T14:27:47.794Z,35.00
2023-02-17T14:30:51.310Z,28.55
2023-02-17T14:34:00.960Z,29.38
2023-02-17T14:37:27.840Z,28.20
2023-02-17T14:40:30.788Z,27.25
2023-02-17T14:43:34.201Z,25.88
2023-02-17T14:46:37.666Z,31.45
2023-02-17T14:49:41.140Z,34.58
2023-02-17T14:52:52.660Z,30.88
2023-02-17T14:56:02.948Z,29.58
2023-02-17T14:59:05.910Z,31.27
2023-02-17T15:02:20.865Z,36.75
2023-02-17T15:05:24.390Z,32.60
2023-02-17T15:08:32.863Z,35.05
2023-02-17T15:11:37.941Z,39.63
2023-02-17T15:14:40.662Z,45.00
2023-02-17T15:17:43.763Z,38.60
2023-02-17T15:20:50.739Z,36.70
2023-02-17T15:26:56.755Z,42.38
2023-02-17T15:29:59.538Z,38.45
2023-02-17T15:33:02.928Z,39.13
2023-02-17T15:36:06.775Z,47.90
2023-02-17T15:39:11.859Z,46.75
2023-02-17T15:42:14.916Z,47.17
2023-02-17T15:45:19.268Z,47.35
2023-02-17T15:48:30.631Z,36.20
2023-02-17T15:51:33.704Z,45.60
2023-02-17T15:54:36.564Z,49.88
2023-02-17T15:57:43.569Z,45.58
2023-02-17T16:00:47.037Z,48.40
2023-02-17T16:03:50.114Z,42.75
2023-02-17T16:06:52.793Z,52.28
2023-02-17T16:09:55.825Z,66.88
2023-02-17T16:13:01.332Z,48.53
2023-02-17T16:16:05.161Z,41.88
2023-02-17T16:19:12.527Z,46.78
2023-02-17T16:22:15.807Z,46.22
2023-02-17T16:25:20.139Z,35.15
2023-02-17T16:28:23.078Z,31.42
2023-02-17T16:31:26.137Z,29.27
2023-02-17T16:34:32.573Z,33.00
2023-02-17T16:37:35.420Z,38.30
2023-02-17T16:40:47.333Z,36.20
2023-02-17T16:43:50.377Z,37.75
2023-02-17T16:46:55.032Z,36.45
2023-02-17T16:49:58.132Z,45.58
2023-02-17T16:53:03.090Z,38.47
2023-02-17T16:56:20.051Z,41.60
2023-02-17T16:59:24.595Z,33.13
2023-02-17T17:02:28.650Z,48.80
2023-02-17T17:05:34.715Z,37.08
2023-02-17T17:08:38.337Z,28.75
2023-02-17T17:11:42.334Z,39.88
2023-02-17T17:14:45.669Z,35.42
2023-02-17T17:17:59.356Z,36.38
2023-02-17T17:21:02.755Z,32.63
2023-02-17T17:24:07.045Z,27.85
2023-02-17T17:27:12.623Z,32.53
2023-02-17T17:30:21.103Z,31.58
2023-02-17T17:33:26.822Z,31.70
2023-02-17T17:36:43.412Z,35.15
2023-02-17T17:39:47.608Z,33.00
2023-02-17T17:42:52.092Z,29.70
2023-02-17T17:46:00.318Z,29.65
2023-02-17T17:49:06.278Z,36.35
2023-02-17T17:52:10.120Z,32.20
2023-02-17T17:55:14.553Z,30.63
2023-02-17T17:58:18.502Z,33.38
2023-02-17T18:01:25.404Z,30.88
2023-02-17T18:04:29.214Z,31.40
2023-02-17T18:07:36.147Z,29.45
2023-02-17T18:10:42.085Z,31.98
2023-02-17T18:13:48.567Z,30.63
2023-02-17T18:16:52.467Z,31.50
2023-02-17T18:19:56.691Z,24.08
2023-02-17T18:23:00.182Z,33.03
2023-02-17T18:26:10.662Z,29.48
2023-02-17T18:29:15.588Z,26.60
2023-02-17T18:32:22.632Z,31.02
2023-02-17T18:35:26.656Z,23.13
2023-02-17T18:38:32.087Z,31.00
2023-02-17T18:41:35.883Z,27.63
2023-02-17T18:44:39.077Z,22.27
2023-02-17T18:47:43.374Z,26.50
2023-02-17T18:50:47.981Z,37.72
2023-02-17T18:53:55.088Z,31.85
2023-02-17T18:56:59.406Z,33.83
2023-02-17T19:00:04.532Z,26.25
2023-02-17T19:03:09.613Z,31.13
2023-02-17T19:06:16.894Z,24.23
2023-02-17T19:09:22.655Z,27.80
2023-02-17T19:12:27.210Z,30.05
2023-02-17T19:15:31.987Z,36.72
2023-02-17T19:18:36.301Z,44.90
2023-02-17T19:21:40.816Z,32.13
2023-02-17T19:24:51.496Z,30.35
2023-02-17T19:27:57.517Z,29.30
2023-02-17T19:31:03.213Z,36.95
2023-02-17T19:34:07.508Z,27.45
2023-02-17T19:37:13.437Z,28.20
2023-02-17T19:40:21.360Z,27.85
2023-02-17T19:43:26.220Z,36.00
2023-02-17T19:46:30.031Z,29.17
2023-02-17T19:49:35.548Z,34.35
2023-02-17T19:52:39.536Z,33.75
2023-02-17T19:55:45.873Z,28.27
2023-02-17T19:58:51.085Z,31.63
2023-02-17T20:01:57.484Z,26.75
2023-02-17T20:05:03.377Z,26.15
2023-02-17T20:08:13.880Z,34.50
2023-02-17T20:11:22.147Z,27.30
2023-02-17T20:14:28.917Z,26.50
2023-02-17T20:17:34.447Z,25.42
2023-02-17T20:20:39.088Z,38.08
2023-02-17T20:23:45.420Z,45.95
2023-02-17T20:26:52.921Z,26.20
2023-02-17T20:29:57.955Z,36.83
2023-02-17T20:33:03.908Z,34.65
2023-02-17T20:36:09.178Z,38.38
2023-02-17T20:39:12.917Z,54.03
2023-02-17T20:42:15.971Z,50.42
2023-02-17T20:45:18.799Z,36.03
2023-02-17T20:48:27.784Z,51.05
2023-02-17T20:51:31.653Z,41.80
2023-02-17T20:54:35.026Z,38.00
2023-02-17T20:57:38.674Z,34.80
2023-02-17T21:00:42.546Z,36.67
2023-02-17T21:03:47.157Z,56.15
2023-02-17T21:06:52.012Z,48.67
2023-02-17T21:09:55.817Z,49.80
2023-02-17T21:12:59.222Z,71.63
2023-02-17T21:16:02.618Z,96.93
2023-02-17T21:19:06.161Z,49.78
2023-02-17T21:22:09.681Z,59.75
2023-02-17T21:25:13.331Z,52.60
2023-02-17T21:28:20.229Z,47.67
2023-02-17T21:34:30.341Z,72.63
2023-02-17T21:37:34.565Z,23.63
2023-02-17T21:40:37.838Z,43.80
2023-02-17T21:44:00.061Z,47.72
2023-02-17T21:47:03.160Z,41.45
2023-02-17T21:50:09.295Z,42.33
2023-02-17T21:53:13.569Z,86.93
2023-02-17T21:56:18.071Z,49.15
2023-02-17T21:59:21.771Z,36.25
2023-02-17T22:02:25.008Z,50.97
2023-02-17T22:05:31.816Z,70.20
2023-02-17T22:08:35.035Z,62.28
2023-02-17T22:11:40.985Z,49.05
2023-02-17T22:14:44.017Z,45.95
2023-02-17T22:17:48.647Z,47.53
2023-02-17T22:20:51.762Z,35.75
2023-02-17T22:23:54.901Z,36.30
2023-02-17T22:26:58.257Z,47.17
2023-02-17T22:30:01.081Z,69.13
2023-02-17T22:33:04.887Z,145.50
2023-02-17T22:36:10.873Z,86.32
2023-02-17T22:39:13.979Z,93.75
2023-02-17T22:42:17.286Z,85.30
2023-02-17T22:45:20.166Z,149.93
2023-02-17T22:48:23.533Z,49.83
2023-02-17T22:51:32.752Z,42.03
2023-02-17T22:54:35.660Z,45.55
2023-02-17T22:57:38.508Z,41.97
2023-02-17T23:00:41.321Z,47.47
2023-02-17T23:03:45.314Z,43.50
2023-02-17T23:06:48.129Z,44.55
2023-02-17T23:09:51.548Z,51.03
2023-02-17T23:12:54.300Z,35.22
2023-02-17T23:15:57.046Z,50.88
2023-02-17T23:19:00.345Z,46.80
2023-02-17T23:22:07.488Z,43.15
2023-02-17T23:25:11.875Z,40.53
2023-02-17T23:28:14.739Z,32.83
2023-02-17T23:31:17.689Z,35.63
2023-02-17T23:34:20.489Z,31.08
2023-02-17T23:37:23.355Z,32.90
2023-02-17T23:40:26.221Z,28.50
2023-02-17T23:43:29.105Z,26.92
2023-02-17T23:46:32.077Z,31.25
2023-02-17T23:49:34.699Z,41.22
2023-02-17T23:52:37.609Z,24.35
2023-02-17T23:55:40.499Z,3.00
2023-02-17T23:58:43.555Z,2.95
